Warsaw, IN

11:16 AM EDT on July 20, 2017 (GMT -0400)
Warsaw Municipal

Weather History for KASW - February, 2011

Change the Weather History Date:

Friday, February 4, 2011

  Actual Average Record
Temperature  
Mean Temperature 18 °F -  
Max Temperature 27 °F 31 °F 54 °F (1986)
Min Temperature 8 °F 15 °F -13 °F (1976)
Degree Days  
Heating Degree Days 48    
Moisture  
Dew Point 1 °F    
Average Humidity 50    
Maximum Humidity 70    
Minimum Humidity 30    
Precipitation  
Precipitation 0.00 in - - ()
Sea Level Pressure  
Sea Level Pressure 30.15 in    
Wind  
Wind Speed 7 mph (SW)    
Max Wind Speed 14 mph    
Max Gust Speed 18 mph    
Visibility 10 miles    
Events      
Averages and records for this station are not official NWS values.
T = Trace of Precipitation, MM = Missing Value Source: NWS Daily Summary

Daily Weather History Graph

Daily Weather History Graph

Search for Another Location

Airport or City:

Trip Planner

Search our weather history database for the weather conditions in past years. The results will help you decide how hot, cold, wet, or windy it might be!

Date:

Astronomy

Feb. 04, 2011 Rise Set
Actual Time 7:51 AM EST 6:03 PM EST
Civil Twilight 7:22 AM EST 6:32 PM EST
Nautical Twilight 6:49 AM EST 7:05 PM EST
Astronomical Twilight 6:17 AM EST 7:37 PM EST
Moon 8:17 AM EST (2/4) 7:56 PM EST (2/4)
Length of Visible Light 11h 09m
Length of Day
10h 11m
New Moon, 2% of the Moon is Illuminated
Feb 4
New Moon
Feb 11
First Quarter
Feb 18
Full
Feb 24
Last Quarter
Mar 4
New

Hourly Weather History & Observations

Time (EST) Temp. Windchill Dew Point Humidity Pressure Visibility Wind Dir Wind Speed Gust Speed Precip Events Conditions
12:05 AM 11.3 °F -0.4 °F -2.2 °F 55% 30.34 in 10.0 mi WSW 8.1 mph - N/A   Clear
12:25 AM 11.3 °F 0.7 °F -2.7 °F 53% 30.33 in 10.0 mi WSW 6.9 mph - N/A   Clear
12:45 AM 10.9 °F 0.2 °F -2.6 °F 55% 30.33 in 10.0 mi WSW 6.9 mph - N/A   Clear
1:05 AM 10.8 °F 0.0 °F -2.2 °F 56% 30.31 in 10.0 mi SW 6.9 mph - N/A   Clear
1:25 AM 10.9 °F -0.8 °F -3.5 °F 52% 30.30 in 10.0 mi SW 8.1 mph - N/A   Clear
1:45 AM 11.3 °F 0.7 °F -4.2 °F 50% 30.29 in 10.0 mi SW 6.9 mph - N/A   Clear
2:05 AM 11.3 °F 1.9 °F -4.5 °F 49% 30.28 in 10.0 mi SW 5.8 mph - N/A   Clear
2:45 AM 10.8 °F 0.0 °F -4.4 °F 51% 30.28 in 10.0 mi SW 6.9 mph - N/A   Clear
3:05 AM 10.8 °F -1.1 °F -4.5 °F 50% 30.27 in 10.0 mi SW 8.1 mph - N/A   Clear
3:25 AM 10.9 °F 1.4 °F -4.7 °F 49% 30.27 in 10.0 mi SW 5.8 mph - N/A   Clear
3:45 AM 10.4 °F 0.8 °F -4.5 °F 51% 30.26 in 10.0 mi SW 5.8 mph - N/A   Clear
4:05 AM 10.4 °F -0.4 °F -4.2 °F 52% 30.25 in 10.0 mi SW 6.9 mph - N/A   Clear
4:25 AM 10.8 °F 0.0 °F -3.8 °F 52% 30.25 in 10.0 mi SW 6.9 mph - N/A   Clear
4:45 AM 10.8 °F 0.0 °F -3.3 °F 53% 30.25 in 10.0 mi SW 6.9 mph - N/A   Clear
5:05 AM 10.4 °F -0.4 °F -2.9 °F 55% 30.25 in 10.0 mi WSW 6.9 mph - N/A   Clear
5:25 AM 10.6 °F -0.2 °F -1.8 °F 57% 30.24 in 10.0 mi SW 6.9 mph - N/A   Clear
5:45 AM 10.4 °F 0.8 °F -1.1 °F 60% 30.24 in 10.0 mi WSW 5.8 mph - N/A   Clear
6:05 AM 9.7 °F 1.4 °F -0.8 °F 63% 30.23 in 10.0 mi SW 4.6 mph - N/A   Clear
6:25 AM 9.5 °F 1.2 °F -0.4 °F 64% 30.21 in 10.0 mi SW 4.6 mph - N/A   Clear
6:45 AM 9.5 °F 3.0 °F 0.1 °F 66% 30.20 in 10.0 mi SW 3.5 mph - N/A   Clear
7:05 AM 8.6 °F 0.1 °F -0.4 °F 67% 30.21 in 10.0 mi SW 4.6 mph - N/A   Clear
7:45 AM 8.8 °F -2.4 °F 0.9 °F 70% 30.21 in 10.0 mi SW 6.9 mph - N/A   Clear
8:05 AM 9.3 °F -1.7 °F 1.4 °F 70% 30.22 in 10.0 mi SW 6.9 mph - N/A   Clear
8:25 AM 10.6 °F 1.0 °F 2.5 °F 70% 30.21 in 10.0 mi SW 5.8 mph - N/A   Clear
8:45 AM 12.0 °F 1.5 °F 2.8 °F 67% 30.22 in 10.0 mi SW 6.9 mph - N/A   Clear
9:05 AM 13.5 °F 1.3 °F 3.0 °F 63% 30.21 in 10.0 mi SW 9.2 mph - N/A   Clear
9:25 AM 14.7 °F 2.1 °F 2.8 °F 59% 30.21 in 10.0 mi SW 10.4 mph - N/A   Clear
9:45 AM 15.3 °F 2.8 °F 3.0 °F 58% 30.20 in 10.0 mi WSW 10.4 mph - N/A   Clear
10:05 AM 16.2 °F 1.9 °F 2.3 °F 54% 30.21 in 10.0 mi WSW 13.8 mph 17.3 mph N/A   Clear
10:25 AM 17.2 °F 7.8 °F 2.1 °F 52% 30.21 in 10.0 mi SW 6.9 mph 16.1 mph N/A   Clear
10:45 AM 18.0 °F 4.8 °F 1.2 °F 48% 30.20 in 10.0 mi SW 12.7 mph 17.3 mph N/A   Clear
11:05 AM 19.4 °F 8.6 °F 1.9 °F 47% 30.21 in 10.0 mi SW 9.2 mph - N/A   Clear
11:25 AM 19.6 °F 7.4 °F 2.3 °F 47% 30.21 in 10.0 mi WSW 11.5 mph - N/A   Clear
11:45 AM 20.8 °F 10.4 °F 2.7 °F 45% 30.20 in 10.0 mi SW 9.2 mph - N/A   Clear
12:05 PM 21.2 °F 11.7 °F 2.7 °F 45% 30.19 in 10.0 mi SW 8.1 mph - N/A   Clear
12:25 PM 22.5 °F 12.4 °F 1.2 °F 40% 30.18 in 10.0 mi SW 9.2 mph 12.7 mph N/A   Clear
12:45 PM 23.0 °F 11.7 °F 0.3 °F 37% 30.17 in 10.0 mi WSW 11.5 mph - N/A   Clear
1:05 PM 23.5 °F 11.8 °F -0.9 °F 35% 30.16 in 10.0 mi SW 12.7 mph 18.4 mph N/A   Clear
1:45 PM 24.6 °F 14.4 °F 0.7 °F 36% 30.13 in 10.0 mi WSW 10.4 mph 16.1 mph N/A   Clear
2:05 PM 25.3 °F 15.3 °F 0.1 °F 34% 30.12 in 10.0 mi WSW 10.4 mph 18.4 mph N/A   Clear
2:25 PM 25.9 °F 15.3 °F 0.3 °F 33% 30.10 in 10.0 mi WSW 11.5 mph - N/A   Clear
2:45 PM 26.4 °F 16.6 °F 0.7 °F 33% 30.09 in 10.0 mi SW 10.4 mph 16.1 mph N/A   Clear
3:05 PM 26.6 °F 18.2 °F 0.7 °F 33% 30.08 in 10.0 mi SW 8.1 mph - N/A   Clear
3:25 PM 26.8 °F 16.5 °F -0.9 °F 30% 30.07 in 10.0 mi WSW 11.5 mph 18.4 mph N/A   Clear
3:45 PM 27.5 °F 20.2 °F 0.5 °F 31% 30.06 in 10.0 mi SW 6.9 mph - N/A   Clear
4:05 PM 27.3 °F 17.1 °F 1.0 °F 32% 30.06 in 10.0 mi SW 11.5 mph 16.1 mph N/A   Clear
4:25 PM 27.3 °F 19.1 °F 2.1 °F 34% 30.06 in 10.0 mi SSW 8.1 mph - N/A   Clear
4:45 PM 27.0 °F 19.5 °F 1.9 °F 34% 30.05 in 10.0 mi SW 6.9 mph - N/A   Clear
5:05 PM 26.6 °F 20.0 °F 2.3 °F 35% 30.05 in 10.0 mi SW 5.8 mph - N/A   Clear
5:25 PM 25.9 °F 18.2 °F 3.6 °F 38% 30.04 in 10.0 mi SW 6.9 mph - N/A   Clear
5:45 PM 25.0 °F 18.1 °F 4.8 °F 42% 30.04 in 10.0 mi SSW 5.8 mph - N/A   Clear
6:05 PM 24.3 °F 16.3 °F 5.2 °F 44% 30.02 in 10.0 mi SSW 6.9 mph - N/A   Clear
6:25 PM 23.9 °F 18.0 °F 5.7 °F 46% 30.01 in 10.0 mi SSW 4.6 mph - N/A   Clear
6:45 PM 23.0 °F 18.4 °F 6.3 °F 49% 30.01 in 10.0 mi SSW 3.5 mph - N/A   Clear
7:05 PM 22.6 °F 18.0 °F 6.6 °F 50% 30.01 in 10.0 mi SSW 3.5 mph - N/A   Clear
7:25 PM 22.1 °F 15.9 °F 6.4 °F 51% 30.00 in 10.0 mi SSW 4.6 mph - N/A   Clear
7:45 PM 21.9 °F 15.7 °F 6.8 °F 52% 30.00 in 10.0 mi SSW 4.6 mph - N/A   Clear
8:05 PM 21.2 °F - 6.8 °F 54% 29.99 in 10.0 mi Calm Calm - N/A   Clear
8:25 PM 20.7 °F 13.0 °F 8.1 °F 58% 29.98 in 10.0 mi South 5.8 mph - N/A   Clear
8:45 PM 21.0 °F 14.6 °F 8.8 °F 59% 29.98 in 10.0 mi SSW 4.6 mph - N/A   Clear
9:05 PM 20.7 °F 15.8 °F 9.3 °F 62% 29.96 in 10.0 mi SSW 3.5 mph - N/A   Clear
9:25 PM 20.8 °F - 9.7 °F 62% 29.97 in 10.0 mi Calm Calm - N/A   Clear
9:45 PM 19.9 °F 14.9 °F 9.9 °F 65% 29.96 in 10.0 mi SSW 3.5 mph - N/A   Clear
10:05 PM 19.6 °F 14.5 °F 9.7 °F 65% 29.95 in 10.0 mi SSW 3.5 mph - N/A   Clear
10:25 PM 18.7 °F 11.9 °F 9.9 °F 69% 29.94 in 10.0 mi SSW 4.6 mph - N/A   Clear
10:45 PM 19.2 °F 14.1 °F 10.0 °F 67% 29.93 in 10.0 mi SSW 3.5 mph - N/A   Clear
11:05 PM 19.4 °F 14.3 °F 10.2 °F 68% 29.93 in 10.0 mi SSW 3.5 mph - N/A   Clear
11:25 PM 18.7 °F - 10.6 °F 71% 29.92 in 10.0 mi Calm Calm - N/A   Clear